KCVS/CVS METAR and TAF weather

Enter ICAO airport designator
Station Type Date Time Source
KCVS METAR 2021/10/24 20:29 UTC NOAA

KCVS 242029Z AUTO 27015G20KT 10SM CLR 26/M00 A2991 RMK AO2 WSHFT 17 SLP077 $


Station Type Date Time Source
KCVS Decoded METAR 2021/10/24 20:29 UTC NOAA

Cannon Air Force Base / Clovis, NM, United States (KCVS) 34-23N 103-19W
Oct 24, 2021 - 04:29 PM EDT / 2021.10.24 2029 UTC
Wind: from the W (270 degrees) at 17 MPH (15 KT) gusting to 23 MPH (20 KT):0
Visibility: 10 mile(s):0
Sky conditions: clear
Temperature: 78 F (26 C)
Dew Point: 32 F (0 C)
Relative Humidity: 18%
Pressure (altimeter): 29.91 in. Hg (1012 hPa)
ob: KCVS 242029Z AUTO 27015G20KT 10SM CLR 26/M00 A2991 RMK AO2 WSHFT 17 SLP077
cycle: 20

Station Type Date Time Source
KCVS TAF 2021/10/24 18:57 UTC NOAA

TAF TAF KCVS 241755Z 2418/2524 27015G25KT 9999 FEW120 QNH2991INS
BECMG 2423/2424 27012KT 9999 SKC QNH2992INS
BECMG 2503/2504 VRB06KT 9999 SKC QNH3001INS
BECMG 2515/2516 23010G15KT 9999 SKC QNH2997INS
BECMG 2520/2521 20010G20KT 9999 SKC QNH2994INS
BECMG 2523/2524 20012KT 9999 SKC QNH2994INS TX26/2421Z TN10/2513Z

Example: see airport list